Time;durP1;ratioP1;P1;durP2;ratioP2;P2;SDS_P1;SDS_P2;PMS_P1;PMS_P2;Temp;Humidity;BMP_temperature;BMP_pressure;BME280_temperature;BME280_humidity;BME280_pressure;Samples;Min_cycle;Max_cycle;Signal;HPM_P1;HPM_P2
2022/04/07 11:26:10;;;;;;;4.80;1.80;;;22.90;54.30;;;;;;5052557;28;20437;-83
2022/04/07 11:28:38;;;;;;;3.00;1.70;;;22.90;55.80;;;;;;5035826;28;20446;-82
2022/04/07 11:31:06;;;;;;;7.70;2.33;;;22.90;55.90;;;;;;5053551;28;20441;-83
2022/04/07 11:33:38;;;;;;;4.70;2.23;;;22.90;56.20;;;;;;5053671;28;20480;-82
2022/04/07 11:36:33;;;;;;;2.10;1.50;;;22.90;56.30;;;;;;5053786;28;20438;-82
2022/04/07 11:39:00;;;;;;;2.80;1.80;;;22.90;56.00;;;;;;5053709;28;20928;-81
2022/04/07 11:41:41;;;;;;;1.67;1.40;;;22.90;55.90;;;;;;5053768;28;20505;-81
2022/04/07 11:44:10;;;;;;;2.77;2.20;;;23.00;55.90;;;;;;5053420;28;20477;-83
2022/04/07 11:46:37;;;;;;;3.53;2.40;;;22.90;56.20;;;;;;5053677;28;20916;-82
2022/04/07 11:49:04;;;;;;;2.47;2.10;;;22.90;56.30;;;;;;5053332;28;20955;-82
2022/04/07 11:51:35;;;;;;;3.90;3.37;;;22.90;56.40;;;;;;5052616;28;20466;-82
2022/04/07 11:54:03;;;;;;;3.20;2.63;;;22.90;56.70;;;;;;5053219;28;20814;-82
2022/04/07 11:56:33;;;;;;;2.97;2.30;;;22.90;56.90;;;;;;5053204;28;20442;-82
2022/04/07 11:59:02;;;;;;;5.20;3.30;;;22.90;56.90;;;;;;5053232;28;20503;-83
2022/04/07 12:01:29;;;;;;;3.63;3.30;;;23.00;57.30;;;;;;5052674;28;20799;-83
2022/04/07 12:03:57;;;;;;;4.30;3.43;;;22.90;57.20;;;;;;5052963;28;20481;-83
2022/04/07 12:06:25;;;;;;;5.93;3.90;;;22.90;57.00;;;;;;5053013;28;20434;-83
2022/04/07 12:08:52;;;;;;;6.13;4.80;;;22.90;56.80;;;;;;5035743;28;20438;-83
2022/04/07 12:11:20;;;;;;;6.10;5.50;;;22.90;56.70;;;;;;5053289;28;20446;-83
2022/04/07 12:13:50;;;;;;;8.40;7.33;;;22.90;56.70;;;;;;5053321;28;20443;-83
2022/04/07 12:16:18;;;;;;;9.50;8.67;;;23.00;57.00;;;;;;5052667;28;20468;-83
2022/04/07 12:18:53;;;;;;;10.97;10.00;;;22.90;57.20;;;;;;5052388;28;20819;-83
2022/04/07 12:21:20;;;;;;;10.67;9.70;;;23.00;57.40;;;;;;5052379;28;20457;-83
2022/04/07 12:23:48;;;;;;;9.67;8.90;;;22.90;57.40;;;;;;5052005;28;20452;-84
2022/04/07 12:26:15;;;;;;;12.27;11.17;;;22.90;57.50;;;;;;5052361;28;20450;-83
2022/04/07 12:28:42;;;;;;;14.93;13.20;;;22.90;57.60;;;;;;5052221;28;20446;-83
2022/04/07 12:31:20;;;;;;;14.27;12.87;;;22.90;57.80;;;;;;5052408;28;20449;-83
2022/04/07 12:33:48;;;;;;;17.27;15.70;;;22.90;58.10;;;;;;5053011;28;20932;-83
2022/04/07 12:36:17;;;;;;;22.43;20.13;;;22.90;58.30;;;;;;5053087;28;20954;-83
2022/04/07 12:38:59;;;;;;;22.83;20.57;;;22.90;58.50;;;;;;5052937;28;20940;-83
2022/04/07 12:41:37;;;;;;;24.60;22.00;;;22.90;58.70;;;;;;5053124;28;20434;-83
2022/04/07 12:44:05;;;;;;;26.20;23.67;;;22.90;58.60;;;;;;5053095;28;20472;-83
2022/04/07 12:46:49;;;;;;;30.37;27.37;;;22.80;58.70;;;;;;5052799;28;20447;-83
2022/04/07 12:49:24;;;;;;;27.87;24.97;;;22.90;59.10;;;;;;5052822;28;20456;-83
2022/04/07 12:52:02;;;;;;;30.30;27.23;;;23.00;59.40;;;;;;5053057;28;20461;-83
2022/04/07 12:54:29;;;;;;;38.00;33.90;;;22.80;59.10;;;;;;5052709;28;20454;-83
2022/04/07 12:57:12;;;;;;;36.63;32.83;;;22.80;59.70;;;;;;5052642;28;20450;-83
2022/04/07 12:59:39;;;;;;;32.50;29.13;;;22.90;60.20;;;;;;5053006;28;20438;-83
2022/04/07 13:02:08;;;;;;;29.23;26.37;;;22.90;59.90;;;;;;5052943;28;20430;-83
2022/04/07 13:04:51;;;;;;;28.07;25.03;;;22.80;59.50;;;;;;5056013;28;20485;-84
2022/04/07 13:07:19;;;;;;;29.10;26.13;;;22.90;59.20;;;;;;5056117;28;20434;-83
2022/04/07 13:09:47;;;;;;;26.67;24.07;;;22.90;59.00;;;;;;5055360;28;20441;-83
2022/04/07 13:12:14;;;;;;;27.07;24.37;;;23.00;58.80;;;;;;5055212;28;20446;-83
2022/04/07 13:14:41;;;;;;;29.00;25.90;;;22.80;58.60;;;;;;5055238;28;20445;-84
2022/04/07 13:17:10;;;;;;;26.53;23.73;;;22.90;58.90;;;;;;5055366;28;20442;-83
2022/04/07 13:19:38;;;;;;;22.67;20.47;;;22.90;58.90;;;;;;5055673;28;20473;-85
2022/04/07 13:22:05;;;;;;;21.87;19.57;;;22.90;58.70;;;;;;5062231;28;20465;-86
2022/04/07 13:24:33;;;;;;;23.70;21.40;;;22.90;58.00;;;;;;5060768;28;20563;-86
2022/04/07 13:27:00;;;;;;;23.20;20.90;;;22.90;57.40;;;;;;5055983;28;20446;-86
2022/04/07 13:29:27;;;;;;;22.07;19.97;;;22.90;57.00;;;;;;5055540;28;20442;-86
2022/04/07 13:31:54;;;;;;;22.50;20.33;;;23.00;57.00;;;;;;5055679;28;20495;-86
2022/04/07 13:34:22;;;;;;;19.67;17.77;;;22.90;56.80;;;;;;5055638;28;20449;-86
2022/04/07 13:36:49;;;;;;;18.70;16.93;;;22.90;56.70;;;;;;5055892;28;20437;-86
2022/04/07 13:39:16;;;;;;;18.80;17.00;;;22.90;56.60;;;;;;5055123;28;20924;-87
2022/04/07 13:41:43;;;;;;;19.17;17.03;;;23.00;56.60;;;;;;5055393;28;20442;-86
2022/04/07 13:44:10;;;;;;;19.07;16.17;;;23.00;56.70;;;;;;5055394;28;20451;-87
2022/04/07 13:46:37;;;;;;;17.47;15.63;;;23.00;56.70;;;;;;5037859;28;20947;-88
2022/04/07 13:49:04;;;;;;;14.97;13.57;;;23.00;56.60;;;;;;5055857;28;20456;-88
2022/04/07 13:51:32;;;;;;;14.27;12.13;;;23.00;56.40;;;;;;5055211;28;21049;-87
2022/04/07 13:53:59;;;;;;;17.33;12.40;;;23.00;56.20;;;;;;5055243;28;20449;-88
2022/04/07 13:56:26;;;;;;;12.03;10.90;;;23.00;55.90;;;;;;5055493;28;20437;-87
2022/04/07 13:58:53;;;;;;;13.80;12.40;;;23.00;55.70;;;;;;5055017;28;20947;-87
2022/04/07 14:01:21;;;;;;;12.03;10.83;;;23.00;55.60;;;;;;5054819;28;20760;-87
2022/04/07 14:03:50;;;;;;;13.27;11.50;;;23.00;55.60;;;;;;5055357;28;20549;-89
2022/04/07 14:06:16;;;;;;;12.17;11.07;;;23.00;55.60;;;;;;5055296;28;20859;-88
2022/04/07 14:08:45;;;;;;;11.60;10.43;;;23.00;55.50;;;;;;5055136;28;20799;-88
2022/04/07 14:11:13;;;;;;;11.60;10.50;;;23.00;55.50;;;;;;5054647;28;20448;-89
2022/04/07 14:13:40;;;;;;;10.60;9.70;;;23.00;55.30;;;;;;5054901;28;20456;-88
2022/04/07 14:16:08;;;;;;;10.27;9.20;;;23.00;55.30;;;;;;5054828;28;20452;-87
2022/04/07 14:18:35;;;;;;;10.70;9.60;;;23.00;55.40;;;;;;5054618;28;20812;-88
2022/04/07 14:21:02;;;;;;;10.47;9.33;;;23.00;55.30;;;;;;5054445;28;20500;-88
2022/04/07 14:23:29;;;;;;;10.30;9.30;;;23.00;55.40;;;;;;5054540;28;20441;-88
2022/04/07 14:25:57;;;;;;;12.00;9.27;;;23.00;55.30;;;;;;5054461;28;20489;-88
2022/04/07 14:28:24;;;;;;;10.20;9.20;;;23.00;55.30;;;;;;5054575;28;20449;-89
2022/04/07 14:30:52;;;;;;;9.90;9.00;;;23.00;55.30;;;;;;5055025;28;20437;-89
2022/04/07 14:33:19;;;;;;;9.47;8.50;;;23.00;55.30;;;;;;5054549;28;20438;-89
2022/04/07 14:35:47;;;;;;;9.27;8.47;;;23.00;55.20;;;;;;5054906;28;20444;-89
2022/04/07 14:38:14;;;;;;;10.10;8.40;;;23.00;55.10;;;;;;5054837;28;20487;-89
2022/04/07 14:40:42;;;;;;;8.93;8.03;;;23.00;55.00;;;;;;5054604;28;20444;-89
2022/04/07 14:43:11;;;;;;;8.00;7.20;;;23.00;55.00;;;;;;5054494;28;20453;-89
2022/04/07 14:45:38;;;;;;;7.53;6.93;;;23.00;54.90;;;;;;5054606;28;20488;-87
2022/04/07 14:48:06;;;;;;;6.90;6.20;;;23.00;54.90;;;;;;5054535;28;20916;-88
2022/04/07 14:50:33;;;;;;;6.70;6.00;;;23.00;54.70;;;;;;5054562;28;20446;-88
2022/04/07 14:52:59;;;;;;;6.83;6.23;;;23.10;54.70;;;;;;5054319;28;20437;-89
2022/04/07 14:55:26;;;;;;;7.27;6.57;;;23.00;54.70;;;;;;5054380;28;20449;-88
2022/04/07 14:57:54;;;;;;;6.73;6.03;;;23.00;54.60;;;;;;5054535;28;20444;-88
2022/04/07 15:00:22;;;;;;;7.43;6.13;;;23.00;54.60;;;;;;5054258;28;20449;-88
2022/04/07 15:02:49;;;;;;;6.30;5.70;;;23.00;54.70;;;;;;5054441;28;20441;-88
2022/04/07 15:05:16;;;;;;;6.57;5.27;;;23.00;54.70;;;;;;5036449;28;21091;-89
2022/04/07 15:07:43;;;;;;;9.57;5.07;;;23.00;54.60;;;;;;5054191;28;20441;-88
2022/04/07 15:10:10;;;;;;;6.40;5.80;;;23.00;54.60;;;;;;5054307;28;20449;-88
2022/04/07 15:12:37;;;;;;;5.73;5.13;;;23.00;54.60;;;;;;5036189;28;20796;-89
2022/04/07 15:15:05;;;;;;;5.47;4.97;;;23.00;54.60;;;;;;5053956;28;20442;-88
2022/04/07 15:17:33;;;;;;;5.23;4.83;;;22.90;54.60;;;;;;5053872;28;20446;-88
2022/04/07 15:20:00;;;;;;;5.47;4.97;;;22.90;54.70;;;;;;5053934;28;20441;-88
2022/04/07 15:22:26;;;;;;;5.77;5.23;;;22.90;54.80;;;;;;5053741;28;20984;-88
2022/04/07 15:24:53;;;;;;;5.20;4.80;;;23.00;54.90;;;;;;5053531;28;20500;-88
2022/04/07 15:27:20;;;;;;;5.60;5.00;;;22.90;54.80;;;;;;5035138;28;20457;-89
2022/04/07 15:29:47;;;;;;;5.43;5.00;;;22.90;54.80;;;;;;5053706;28;20445;-88
2022/04/07 15:32:14;;;;;;;5.90;5.40;;;22.90;54.80;;;;;;5053921;28;20773;-88
2022/04/07 15:34:42;;;;;;;6.30;5.70;;;23.00;54.90;;;;;;5053877;28;20442;-88
2022/04/07 15:37:10;;;;;;;6.23;5.63;;;22.90;54.90;;;;;;5053717;28;20445;-88
2022/04/07 15:39:37;;;;;;;5.07;4.57;;;22.90;54.90;;;;;;5053446;28;20446;-88
2022/04/07 15:42:05;;;;;;;6.13;4.80;;;22.90;54.90;;;;;;5053457;28;20520;-88
2022/04/07 15:44:32;;;;;;;5.10;4.70;;;22.90;55.00;;;;;;5053627;28;20473;-88
2022/04/07 15:46:58;;;;;;;4.60;4.20;;;22.90;54.90;;;;;;5053354;28;20497;-88
2022/04/07 15:49:25;;;;;;;6.43;5.77;;;22.90;55.00;;;;;;5053623;28;20448;-88
2022/04/07 15:51:53;;;;;;;4.77;4.37;;;22.90;55.00;;;;;;5053493;28;20812;-88
2022/04/07 15:54:20;;;;;;;5.40;4.90;;;22.90;55.00;;;;;;5053631;28;20453;-88
2022/04/07 15:56:47;;;;;;;5.90;4.90;;;22.90;55.00;;;;;;5053716;28;20446;-88
2022/04/07 15:59:14;;;;;;;6.00;5.50;;;22.90;55.00;;;;;;5053613;28;20446;-88
2022/04/07 16:01:40;;;;;;;5.13;4.63;;;22.90;55.00;;;;;;5053238;28;20446;-88
2022/04/07 16:04:07;;;;;;;5.20;3.63;;;22.80;54.90;;;;;;5035555;28;20814;-88
2022/04/07 16:06:34;;;;;;;4.80;4.30;;;22.90;55.00;;;;;;5053762;28;20485;-88
2022/04/07 16:09:03;;;;;;;4.07;3.77;;;22.90;55.00;;;;;;5053413;28;20441;-87
2022/04/07 16:11:29;;;;;;;5.10;4.60;;;22.90;55.00;;;;;;5053287;28;20454;-88
2022/04/07 16:13:57;;;;;;;5.30;3.85;;;23.00;55.10;;;;;;5054143;28;20436;-94
2022/04/07 16:16:30;;;;;;;4.67;4.27;;;22.90;55.10;;;;;;5054152;28;20207;-94
2022/04/07 16:18:56;;;;;;;4.37;4.00;;;22.90;55.10;;;;;;5054316;28;20981;-92
2022/04/07 16:21:27;;;;;;;6.13;4.53;;;23.00;55.40;;;;;;5055383;28;20470;-91
2022/04/07 16:38:42;;;;;;;6.73;4.83;;;22.70;55.20;;;;;;5049592;28;20819;-81
2022/04/07 16:41:10;;;;;;;4.20;3.80;;;22.70;55.40;;;;;;5066125;28;20436;-82
2022/04/07 16:43:37;;;;;;;4.57;4.00;;;22.70;55.30;;;;;;5076692;28;20436;-78
2022/04/07 16:46:03;;;;;;;5.10;4.40;;;22.80;55.10;;;;;;5076796;28;20485;-88
2022/04/07 16:48:30;;;;;;;6.60;5.47;;;22.80;55.10;;;;;;5076778;28;20445;-87
2022/04/07 16:50:57;;;;;;;5.90;4.97;;;22.80;55.10;;;;;;5076748;28;20457;-88
2022/04/07 16:53:24;;;;;;;5.00;4.40;;;22.80;55.20;;;;;;5076420;28;20969;-81
2022/04/07 16:55:52;;;;;;;8.40;4.77;;;22.80;55.30;;;;;;5076987;28;20780;-88
2022/04/07 16:58:19;;;;;;;6.20;5.07;;;22.90;55.30;;;;;;5077161;28;20451;-90
2022/04/07 17:00:46;;;;;;;8.20;6.27;;;22.90;55.10;;;;;;5076442;28;20943;-86
2022/04/07 17:03:13;;;;;;;7.93;6.50;;;22.90;55.20;;;;;;5076764;28;20482;-88
2022/04/07 17:05:41;;;;;;;9.53;5.90;;;22.90;55.30;;;;;;5076261;28;20472;-89
2022/04/07 17:08:08;;;;;;;7.63;6.50;;;22.90;55.30;;;;;;5076704;28;20484;-87
2022/04/07 17:10:35;;;;;;;7.83;5.73;;;23.00;55.30;;;;;;5076692;28;20468;-95
2022/04/07 17:13:04;;;;;;;11.03;5.40;;;23.00;55.10;;;;;;5076445;28;20436;-87
2022/04/07 17:15:31;;;;;;;8.47;4.93;;;23.00;55.10;;;;;;5076590;28;20456;-87
2022/04/07 17:17:57;;;;;;;10.10;5.37;;;23.00;55.30;;;;;;5076694;28;20928;-85
2022/04/07 17:20:24;;;;;;;5.17;4.73;;;23.00;55.20;;;;;;5075828;28;20461;-85
2022/04/07 17:22:51;;;;;;;5.30;4.57;;;23.10;55.30;;;;;;5075424;28;20433;-85
2022/04/07 17:25:18;;;;;;;5.13;4.73;;;23.10;55.20;;;;;;5075332;28;20436;-86
2022/04/07 17:27:45;;;;;;;5.43;4.67;;;23.20;55.20;;;;;;5075972;28;20526;-85
2022/04/07 17:30:13;;;;;;;4.47;4.07;;;23.30;55.20;;;;;;5075363;28;20453;-89
2022/04/07 17:32:40;;;;;;;5.83;5.37;;;23.40;55.30;;;;;;5075576;28;20437;-85
2022/04/07 17:35:09;;;;;;;5.43;4.40;;;23.40;55.30;;;;;;5075540;28;20448;-86
2022/04/07 17:37:36;;;;;;;4.77;4.37;;;23.50;55.20;;;;;;5075147;28;20511;-86
2022/04/07 17:40:03;;;;;;;4.73;4.20;;;23.60;55.20;;;;;;5075456;28;20441;-87
2022/04/07 17:42:31;;;;;;;7.40;4.63;;;23.60;55.10;;;;;;5075439;28;20449;-86
2022/04/07 17:45:04;;;;;;;7.10;4.63;;;23.70;55.10;;;;;;5075265;28;20533;-86
2022/04/07 17:47:33;;;;;;;4.67;4.23;;;23.70;55.20;;;;;;5075725;28;20576;-86
2022/04/07 17:50:00;;;;;;;4.93;4.40;;;23.70;55.00;;;;;;5074599;28;20436;-87
2022/04/07 17:52:28;;;;;;;4.53;4.13;;;23.90;55.10;;;;;;5075728;28;20438;-86
2022/04/07 17:54:56;;;;;;;4.27;3.87;;;23.80;54.90;;;;;;5075220;28;20449;-85
2022/04/07 17:57:23;;;;;;;6.53;4.73;;;23.90;54.90;;;;;;5075282;28;21001;-86
2022/04/07 17:59:50;;;;;;;7.63;4.00;;;23.90;54.90;;;;;;5075324;28;21018;-86
2022/04/07 18:02:17;;;;;;;4.37;3.70;;;24.00;54.90;;;;;;5075276;28;20441;-87
2022/04/07 18:04:46;;;;;;;3.87;3.57;;;24.00;54.90;;;;;;5075306;28;20449;-86
2022/04/07 18:07:13;;;;;;;4.77;3.67;;;24.00;55.00;;;;;;5075316;28;20441;-86
2022/04/07 18:09:40;;;;;;;4.93;3.90;;;24.00;54.80;;;;;;5076113;28;20449;-86
2022/04/07 18:12:08;;;;;;;6.80;3.60;;;24.10;54.80;;;;;;5075262;28;20941;-91
2022/04/07 18:14:34;;;;;;;3.70;3.40;;;24.10;54.90;;;;;;5075529;28;20445;-90
2022/04/07 18:17:01;;;;;;;4.20;3.80;;;24.10;54.80;;;;;;5074943;28;20480;-91
2022/04/07 18:19:28;;;;;;;3.50;3.20;;;24.20;54.70;;;;;;5075875;28;20444;-91
2022/04/07 18:21:57;;;;;;;3.77;3.47;;;24.30;54.70;;;;;;5074935;28;20477;-90
2022/04/07 18:24:24;;;;;;;4.40;3.97;;;24.30;54.70;;;;;;5075092;28;20519;-91
2022/04/07 18:26:52;;;;;;;5.20;4.70;;;24.30;54.70;;;;;;5074759;28;20441;-91
2022/04/07 18:29:19;;;;;;;8.00;4.93;;;24.40;54.60;;;;;;5075243;28;20843;-93
2022/04/07 18:31:46;;;;;;;6.30;4.60;;;24.40;54.70;;;;;;5076202;28;20451;-90
2022/04/07 18:34:13;;;;;;;4.50;3.80;;;24.50;54.90;;;;;;5074994;28;20511;-91
2022/04/07 18:36:40;;;;;;;4.03;3.30;;;24.50;54.70;;;;;;5074755;28;20490;-90
2022/04/07 18:39:10;;;;;;;4.70;3.80;;;24.50;54.50;;;;;;5074017;28;20485;-91
2022/04/07 18:41:36;;;;;;;4.93;3.20;;;24.60;54.50;;;;;;5074747;28;20441;-90
2022/04/07 18:44:03;;;;;;;4.77;3.83;;;24.60;54.60;;;;;;5074998;28;20444;-91
2022/04/07 18:46:30;;;;;;;4.37;3.97;;;24.60;54.60;;;;;;5074884;28;20448;-92
2022/04/07 18:48:57;;;;;;;6.67;3.30;;;24.70;54.60;;;;;;5074810;28;20445;-91
2022/04/07 18:51:24;;;;;;;4.73;3.87;;;24.80;54.60;;;;;;5073611;28;20461;-93
2022/04/07 18:53:51;;;;;;;8.70;4.00;;;24.70;54.50;;;;;;5074127;28;20451;-86
2022/04/07 18:56:19;;;;;;;6.60;4.27;;;24.70;54.70;;;;;;5073956;28;20495;-90
2022/04/07 18:58:46;;;;;;;4.00;3.70;;;24.70;54.90;;;;;;5074054;28;20518;-90
2022/04/07 19:01:13;;;;;;;3.73;3.40;;;24.80;54.70;;;;;;5073644;28;20847;-88
2022/04/07 19:03:40;;;;;;;9.60;4.43;;;24.90;54.70;;;;;;5075323;28;20448;-91
2022/04/07 19:06:07;;;;;;;3.57;2.90;;;24.80;54.60;;;;;;5074417;28;20445;-91
2022/04/07 19:08:34;;;;;;;4.37;3.57;;;24.80;55.20;;;;;;5074472;28;20484;-91
2022/04/07 19:11:02;;;;;;;6.10;4.10;;;24.80;54.60;;;;;;5074732;28;20810;-94
2022/04/07 19:13:31;;;;;;;4.77;3.93;;;24.90;54.80;;;;;;5074197;28;20478;-91
2022/04/07 19:15:58;;;;;;;9.10;3.53;;;24.90;54.90;;;;;;5073725;28;20460;-92
2022/04/07 19:18:25;;;;;;;4.13;3.40;;;24.90;55.00;;;;;;5073192;28;20445;-92
2022/04/07 19:20:51;;;;;;;7.50;3.30;;;24.90;54.90;;;;;;5072862;28;20456;-90
2022/04/07 19:23:18;;;;;;;7.50;3.40;;;24.90;54.90;;;;;;5073568;28;20457;-89
2022/04/07 19:25:45;;;;;;;3.87;3.30;;;24.90;55.50;;;;;;5076551;28;20445;-93
2022/04/07 19:28:12;;;;;;;6.60;3.33;;;25.00;54.90;;;;;;5076761;28;20464;-89
2022/04/07 19:30:41;;;;;;;6.83;3.83;;;25.00;55.00;;;;;;5074606;28;20927;-93
2022/04/07 19:33:08;;;;;;;5.10;3.47;;;25.10;55.00;;;;;;5072961;28;20473;-91
2022/04/07 19:35:35;;;;;;;5.60;3.43;;;25.00;54.90;;;;;;5074907;28;20927;-93
2022/04/07 19:38:02;;;;;;;4.57;3.33;;;25.10;54.80;;;;;;5077449;28;20539;-93
2022/04/07 19:40:29;;;;;;;8.00;3.63;;;25.10;54.80;;;;;;5080955;28;20535;-92
2022/04/07 19:42:56;;;;;;;4.60;3.43;;;25.10;54.80;;;;;;5078881;28;20452;-93
2022/04/07 19:45:24;;;;;;;5.20;3.00;;;25.20;54.80;;;;;;5078301;28;20523;-93
2022/04/07 19:47:52;;;;;;;4.93;3.40;;;25.20;54.70;;;;;;5056805;28;20448;-93
2022/04/07 19:50:20;;;;;;;5.47;3.20;;;25.20;54.60;;;;;;5055762;28;20544;-89
2022/04/07 19:52:46;;;;;;;7.50;3.37;;;25.20;54.70;;;;;;5056369;28;20944;-92
2022/04/07 19:55:13;;;;;;;4.13;2.70;;;25.30;54.80;;;;;;5057084;28;20530;-92
2022/04/07 19:57:41;;;;;;;3.23;2.67;;;25.30;54.90;;;;;;5054129;28;20512;-89
2022/04/07 20:00:09;;;;;;;6.00;3.90;;;25.50;54.90;;;;;;5054074;28;20534;-93
2022/04/07 20:02:57;;;;;;;4.00;2.70;;;25.40;54.80;;;;;;5053648;28;20469;-89
2022/04/07 20:05:24;;;;;;;6.03;3.07;;;25.40;54.80;;;;;;5053494;28;20442;-86
2022/04/07 20:07:50;;;;;;;4.90;2.57;;;25.40;54.90;;;;;;5053255;28;20452;-85
2022/04/07 20:10:19;;;;;;;6.53;3.07;;;25.50;54.90;;;;;;5053329;28;20525;-85
2022/04/07 20:12:46;;;;;;;3.83;2.90;;;25.50;54.80;;;;;;5056554;28;20798;-87
2022/04/07 20:15:13;;;;;;;3.83;2.93;;;25.50;54.80;;;;;;5076746;28;20436;-83
2022/04/07 20:17:40;;;;;;;5.67;3.27;;;25.50;54.70;;;;;;5077252;28;20472;-85
2022/04/07 20:20:10;;;;;;;3.67;3.07;;;25.50;54.50;;;;;;5078780;28;20448;-85
2022/04/07 20:22:39;;;;;;;2.73;2.50;;;25.50;54.40;;;;;;5077147;28;20475;-89
2022/04/07 20:25:07;;;;;;;3.73;2.97;;;25.50;54.40;;;;;;5077508;28;20428;-86
2022/04/07 20:27:34;;;;;;;3.10;2.70;;;25.50;54.40;;;;;;5077881;28;20502;-90
2022/04/07 20:30:00;;;;;;;6.27;2.83;;;25.50;54.30;;;;;;5077383;28;20443;-89
2022/04/07 20:32:28;;;;;;;4.43;3.30;;;25.50;54.30;;;;;;5077381;28;20433;-86
2022/04/07 20:34:56;;;;;;;5.90;2.83;;;25.50;54.20;;;;;;5077268;28;20436;-88
2022/04/07 20:37:24;;;;;;;2.80;2.60;;;25.40;54.30;;;;;;5076755;28;20496;-88
2022/04/07 20:39:51;;;;;;;6.17;3.20;;;25.50;54.30;;;;;;5076630;28;20452;-85
2022/04/07 20:42:17;;;;;;;3.03;2.33;;;25.60;54.40;;;;;;5076316;28;20791;-84
2022/04/07 20:44:44;;;;;;;2.50;2.30;;;25.40;54.20;;;;;;5076159;28;20786;-86
2022/04/07 20:47:11;;;;;;;2.43;2.23;;;25.40;54.20;;;;;;5076936;28;20430;-86
2022/04/07 20:49:38;;;;;;;3.57;2.67;;;25.50;54.20;;;;;;5076438;28;20456;-88
2022/04/07 20:52:05;;;;;;;7.33;2.27;;;25.40;54.20;;;;;;5076105;28;20440;-85
2022/04/07 20:54:33;;;;;;;4.07;2.40;;;25.40;54.30;;;;;;5076111;28;20441;-88
2022/04/07 20:57:00;;;;;;;2.40;2.13;;;25.40;54.20;;;;;;5075053;28;20515;-85
2022/04/07 20:59:27;;;;;;;2.07;1.73;;;25.30;54.20;;;;;;5074918;28;20450;-86
2022/04/07 21:01:54;;;;;;;2.33;1.90;;;25.40;54.30;;;;;;5056742;28;20445;-85
2022/04/07 21:04:21;;;;;;;3.23;2.80;;;25.40;54.20;;;;;;5074986;28;20444;-86
2022/04/07 21:06:48;;;;;;;2.37;2.13;;;25.40;54.10;;;;;;5075695;28;20452;-88
2022/04/07 21:09:14;;;;;;;2.23;2.00;;;25.40;54.10;;;;;;5076266;28;20448;-87
2022/04/07 21:11:43;;;;;;;2.80;2.17;;;25.40;54.10;;;;;;5076158;28;20444;-86
2022/04/07 21:14:09;;;;;;;2.60;1.90;;;25.40;54.10;;;;;;5076024;28;20433;-87
2022/04/07 21:16:36;;;;;;;2.10;1.83;;;25.30;54.00;;;;;;5076055;28;20436;-85
2022/04/07 21:19:03;;;;;;;2.20;1.97;;;25.40;54.10;;;;;;5075946;28;20436;-86
2022/04/07 21:37:20;;;;;;;3.20;1.83;;;25.70;53.50;;;;;;6223563;22;1981140;-86
2022/04/07 21:39:48;;;;;;;3.07;2.40;;;25.40;53.80;;;;;;6260642;22;20889;-85
2022/04/07 21:42:16;;;;;;;3.43;2.30;;;25.40;53.80;;;;;;6258219;23;20863;-86
2022/04/07 21:44:43;;;;;;;2.20;1.97;;;25.30;53.80;;;;;;6256191;22;20397;-86
2022/04/07 21:47:12;;;;;;;4.03;2.13;;;25.30;53.80;;;;;;6266804;23;20408;-86
2022/04/07 21:56:30;;;;;;;1.83;1.67;;;25.10;53.80;;;;;;6255616;23;20452;-85
2022/04/07 21:58:58;;;;;;;2.57;1.50;;;25.10;53.90;;;;;;6255554;22;20703;-86
2022/04/07 22:01:26;;;;;;;2.03;1.80;;;25.00;53.90;;;;;;6255441;23;20442;-85
2022/04/07 22:03:54;;;;;;;2.10;1.70;;;25.10;53.80;;;;;;6255086;22;20884;-85
2022/04/07 22:06:21;;;;;;;2.60;2.00;;;25.10;53.80;;;;;;6255485;23;20709;-85
2022/04/07 22:08:49;;;;;;;1.70;1.30;;;25.10;53.70;;;;;;6255674;23;20750;-85
2022/04/07 22:15:34;;;;;;;1.70;1.60;;;25.10;53.70;;;;;;6255173;23;20380;-86
2022/04/07 22:18:03;;;;;;;1.70;1.60;;;25.00;53.80;;;;;;6255328;22;20686;-85
2022/04/07 22:20:32;;;;;;;2.00;1.80;;;24.90;53.70;;;;;;6255381;23;20369;-85
2022/04/07 22:23:00;;;;;;;1.80;1.70;;;25.00;53.80;;;;;;6255284;23;20746;-85
2022/04/07 22:25:28;;;;;;;1.87;1.43;;;25.00;53.70;;;;;;6255660;23;20822;-85
2022/04/07 22:28:03;;;;;;;2.03;1.50;;;25.00;53.60;;;;;;6255330;23;20737;-85
2022/04/07 22:34:18;;;;;;;2.47;1.50;;;25.00;53.60;;;;;;6249723;22;20986;-85
